createdAt,value
2018-08-12T00:00:10.960Z,54.70
2018-08-12T00:02:39.352Z,54.70
2018-08-12T00:05:07.478Z,54.80
2018-08-12T00:07:35.591Z,54.80
2018-08-12T00:10:04.756Z,54.80
2018-08-12T00:12:32.868Z,54.80
2018-08-12T00:15:01.009Z,54.70
2018-08-12T00:17:29.892Z,54.70
2018-08-12T00:19:58.035Z,54.70
2018-08-12T00:22:26.150Z,54.70
2018-08-12T00:24:54.264Z,54.80
2018-08-12T00:27:22.437Z,54.70
2018-08-12T00:29:50.785Z,54.90
2018-08-12T00:32:18.911Z,54.90
2018-08-12T00:34:47.165Z,55.00
2018-08-12T00:37:15.306Z,55.10
2018-08-12T00:39:43.438Z,55.10
2018-08-12T00:42:11.544Z,55.20
2018-08-12T00:44:39.647Z,55.30
2018-08-12T00:47:07.816Z,55.40
2018-08-12T00:49:35.925Z,55.40
2018-08-12T00:52:04.296Z,55.40
2018-08-12T00:54:32.420Z,55.70
2018-08-12T00:57:00.601Z,55.90
2018-08-12T00:59:29.069Z,56.10
2018-08-12T01:01:57.180Z,56.20
2018-08-12T01:04:25.297Z,56.20
2018-08-12T01:06:53.578Z,56.10
2018-08-12T01:09:21.701Z,56.10
2018-08-12T01:11:49.822Z,56.10
2018-08-12T01:14:18.021Z,56.30
2018-08-12T01:16:46.128Z,56.40
2018-08-12T01:19:14.263Z,57.20
2018-08-12T01:21:42.385Z,56.60
2018-08-12T01:24:10.557Z,56.70
2018-08-12T01:26:38.685Z,56.80
2018-08-12T01:29:06.802Z,56.90
2018-08-12T01:31:36.222Z,57.10
2018-08-12T01:34:04.379Z,57.40
2018-08-12T01:36:32.496Z,57.50
2018-08-12T01:39:00.616Z,58.20
2018-08-12T01:41:28.741Z,57.70
2018-08-12T01:43:56.890Z,57.90
2018-08-12T01:46:25.013Z,58.20
2018-08-12T01:48:53.480Z,58.40
2018-08-12T01:51:21.626Z,58.40
2018-08-12T01:53:49.745Z,58.50
2018-08-12T01:56:18.241Z,58.50
2018-08-12T01:58:46.378Z,58.50
2018-08-12T02:01:14.519Z,58.50
2018-08-12T02:03:42.667Z,58.50
2018-08-12T02:06:11.083Z,58.50
2018-08-12T02:08:39.280Z,58.60
2018-08-12T02:11:07.654Z,58.60
2018-08-12T02:13:36.123Z,58.80
2018-08-12T02:16:04.244Z,58.80
2018-08-12T02:18:32.366Z,58.90
2018-08-12T02:21:00.504Z,59.00
2018-08-12T02:23:28.661Z,59.10
2018-08-12T02:25:56.995Z,59.30
2018-08-12T02:28:25.171Z,59.50
2018-08-12T02:30:53.290Z,59.70
2018-08-12T02:33:21.582Z,59.90
2018-08-12T02:35:49.701Z,60.10
2018-08-12T02:38:17.916Z,60.30
2018-08-12T02:40:46.053Z,60.40
2018-08-12T02:43:14.237Z,60.40
2018-08-12T02:45:42.386Z,60.60
2018-08-12T02:48:10.513Z,60.90
2018-08-12T02:50:38.625Z,61.10
2018-08-12T02:53:07.352Z,61.30
2018-08-12T02:55:35.501Z,61.40
2018-08-12T02:58:03.646Z,61.40
2018-08-12T03:00:31.767Z,61.30
2018-08-12T03:02:59.932Z,61.40
2018-08-12T03:05:28.060Z,61.50
2018-08-12T03:07:56.280Z,61.50
2018-08-12T03:10:24.516Z,61.70
2018-08-12T03:12:52.646Z,61.80
2018-08-12T03:15:20.796Z,62.00
2018-08-12T03:17:48.909Z,62.10
2018-08-12T03:20:17.077Z,62.30
2018-08-12T03:22:45.270Z,62.40
2018-08-12T03:25:13.409Z,62.40
2018-08-12T03:27:41.525Z,62.50
2018-08-12T03:30:10.961Z,62.60
2018-08-12T03:32:39.136Z,62.60
2018-08-12T03:35:07.332Z,62.60
2018-08-12T03:37:35.441Z,62.60
2018-08-12T03:40:04.581Z,62.70
2018-08-12T03:42:32.693Z,62.80
2018-08-12T03:45:00.859Z,62.70
2018-08-12T03:47:29.018Z,62.70
2018-08-12T03:49:57.144Z,62.70
2018-08-12T03:52:25.524Z,62.80
2018-08-12T03:54:53.732Z,62.80
2018-08-12T03:57:21.872Z,62.70
2018-08-12T03:59:50.021Z,62.70
2018-08-12T04:02:18.171Z,62.70
2018-08-12T04:04:46.268Z,62.70
2018-08-12T04:07:14.397Z,62.70
2018-08-12T04:09:42.543Z,62.80
2018-08-12T04:12:10.662Z,62.90
2018-08-12T04:14:38.841Z,63.00
2018-08-12T04:17:07.012Z,63.20
2018-08-12T04:19:35.145Z,63.30
2018-08-12T04:22:03.264Z,63.30
2018-08-12T04:24:31.388Z,63.40
2018-08-12T04:26:59.536Z,63.50
2018-08-12T04:29:27.667Z,63.70
2018-08-12T04:31:55.796Z,63.70
2018-08-12T04:34:24.006Z,63.70
2018-08-12T04:36:52.150Z,63.80
2018-08-12T04:39:20.268Z,64.00
2018-08-12T04:41:48.442Z,64.20
2018-08-12T04:44:16.587Z,64.20
2018-08-12T04:46:44.714Z,64.20
2018-08-12T04:49:12.843Z,64.30
2018-08-12T04:51:41.742Z,64.50
2018-08-12T04:54:09.896Z,65.20
2018-08-12T04:56:38.992Z,64.20
2018-08-12T04:59:07.158Z,64.10
2018-08-12T05:01:35.300Z,64.30
2018-08-12T05:04:03.453Z,64.40
2018-08-12T05:06:31.601Z,64.50
2018-08-12T05:08:59.751Z,64.70
2018-08-12T05:11:27.875Z,64.90
2018-08-12T05:13:55.995Z,65.10
2018-08-12T05:16:24.104Z,65.30
2018-08-12T05:18:52.255Z,65.50
2018-08-12T05:21:20.364Z,65.70
2018-08-12T05:23:48.522Z,65.80
2018-08-12T05:26:16.632Z,65.90
2018-08-12T05:28:45.281Z,66.00
2018-08-12T05:31:13.591Z,66.00
2018-08-12T05:33:41.852Z,66.00
2018-08-12T05:36:10.122Z,66.10
2018-08-12T05:38:38.476Z,66.40
2018-08-12T05:41:06.587Z,65.90
2018-08-12T05:43:34.818Z,65.70
2018-08-12T05:46:03.019Z,65.50
2018-08-12T05:48:31.133Z,65.10
2018-08-12T05:50:59.353Z,64.90
2018-08-12T05:53:27.417Z,64.70
2018-08-12T05:55:55.545Z,64.40
2018-08-12T05:58:24.083Z,64.00
2018-08-12T06:00:52.203Z,63.60
2018-08-12T06:03:20.337Z,63.30
2018-08-12T06:05:48.441Z,63.00
2018-08-12T06:08:16.549Z,62.80
2018-08-12T06:10:44.704Z,62.40
2018-08-12T06:13:13.082Z,62.20
2018-08-12T06:15:41.240Z,62.00
2018-08-12T06:18:09.372Z,62.70
2018-08-12T06:20:37.556Z,61.90
2018-08-12T06:23:05.745Z,61.70
2018-08-12T06:25:33.892Z,61.50
2018-08-12T06:28:01.993Z,61.40
2018-08-12T06:30:30.216Z,61.20
2018-08-12T06:32:58.397Z,60.90
2018-08-12T06:35:26.532Z,60.60
2018-08-12T06:37:54.648Z,60.40
2018-08-12T06:40:22.837Z,60.40
2018-08-12T06:42:50.984Z,60.30
2018-08-12T06:45:19.133Z,60.10
2018-08-12T06:47:48.133Z,60.10
2018-08-12T06:50:16.278Z,59.90
2018-08-12T06:52:44.440Z,59.80
2018-08-12T06:55:13.357Z,59.80
2018-08-12T06:57:42.318Z,59.70
2018-08-12T07:00:12.271Z,59.30
2018-08-12T07:02:40.383Z,59.00
2018-08-12T07:05:09.230Z,58.70
2018-08-12T07:07:37.576Z,58.10
2018-08-12T07:10:07.794Z,57.90
2018-08-12T07:12:35.978Z,57.70
2018-08-12T07:15:05.655Z,57.50
2018-08-12T07:17:33.839Z,57.30
2018-08-12T07:20:02.116Z,57.10
2018-08-12T07:22:30.312Z,56.60
2018-08-12T07:24:58.429Z,56.40
2018-08-12T07:27:26.637Z,56.00
2018-08-12T07:29:55.387Z,55.40
2018-08-12T07:32:23.517Z,54.80
2018-08-12T07:34:52.025Z,54.50
2018-08-12T07:37:20.172Z,54.20
2018-08-12T07:39:48.313Z,53.70
2018-08-12T07:42:16.458Z,53.20
2018-08-12T07:44:44.663Z,52.80
2018-08-12T07:47:12.859Z,52.50
2018-08-12T07:49:41.490Z,52.50
2018-08-12T07:52:10.741Z,52.30
2018-08-12T07:54:39.050Z,51.90
2018-08-12T07:57:07.296Z,51.60
2018-08-12T07:59:36.183Z,51.50
2018-08-12T08:02:04.437Z,51.20
2018-08-12T08:04:32.712Z,50.70
2018-08-12T08:07:01.387Z,50.40
2018-08-12T08:09:29.565Z,49.90
2018-08-12T08:11:57.937Z,49.20
2018-08-12T08:14:32.628Z,48.60
2018-08-12T08:17:00.868Z,48.10
2018-08-12T08:19:29.064Z,47.80
2018-08-12T08:21:57.533Z,47.60
2018-08-12T08:24:26.444Z,47.30
2018-08-12T08:26:54.836Z,47.10
2018-08-12T08:29:22.933Z,47.10
2018-08-12T08:31:52.029Z,47.00
2018-08-12T08:34:19.864Z,46.90
2018-08-12T08:36:48.105Z,46.90
2018-08-12T08:39:16.244Z,46.80
2018-08-12T08:41:44.407Z,46.40
2018-08-12T08:44:12.540Z,46.40
2018-08-12T08:46:40.656Z,46.20
2018-08-12T08:49:08.800Z,45.90
2018-08-12T08:51:37.737Z,45.50
2018-08-12T08:54:06.020Z,45.30
2018-08-12T08:56:34.223Z,45.20
2018-08-12T08:59:02.432Z,44.70
2018-08-12T09:01:30.724Z,44.40
2018-08-12T09:03:58.831Z,44.20
2018-08-12T09:06:26.987Z,43.80
2018-08-12T09:08:55.299Z,43.70
2018-08-12T09:11:23.356Z,43.60
2018-08-12T09:13:51.524Z,43.30
2018-08-12T09:16:19.660Z,43.10
2018-08-12T09:18:47.968Z,42.90
2018-08-12T09:21:16.083Z,42.60
2018-08-12T09:23:44.266Z,42.50
2018-08-12T09:26:12.484Z,42.30
2018-08-12T09:28:40.624Z,41.90
2018-08-12T09:31:08.764Z,41.40
2018-08-12T09:33:36.900Z,41.00
2018-08-12T09:36:05.332Z,40.40
2018-08-12T09:38:33.465Z,40.00
2018-08-12T09:41:01.597Z,40.40
2018-08-12T09:43:29.934Z,39.60
2018-08-12T09:45:58.289Z,39.40
2018-08-12T09:48:26.593Z,39.00
2018-08-12T09:50:54.776Z,38.50
2018-08-12T09:53:22.902Z,38.20
2018-08-12T09:55:51.009Z,38.10
2018-08-12T09:58:19.440Z,38.10
2018-08-12T10:00:47.519Z,38.00
2018-08-12T10:03:15.695Z,38.10
2018-08-12T10:05:43.928Z,38.00
2018-08-12T10:08:12.185Z,37.80
2018-08-12T10:10:40.333Z,37.70
2018-08-12T10:13:08.519Z,37.40
2018-08-12T10:15:36.762Z,37.20
2018-08-12T10:18:05.371Z,37.20
2018-08-12T10:20:33.485Z,37.10
2018-08-12T10:23:01.650Z,37.00
2018-08-12T10:25:30.036Z,36.70
2018-08-12T10:27:58.140Z,36.70
2018-08-12T10:30:26.256Z,36.60
2018-08-12T10:32:54.443Z,36.50
2018-08-12T10:35:22.576Z,36.50
2018-08-12T10:37:50.704Z,36.30
2018-08-12T10:40:19.796Z,36.00
2018-08-12T10:42:48.760Z,35.70
2018-08-12T10:45:17.005Z,35.50
2018-08-12T10:47:45.351Z,35.40
2018-08-12T10:50:15.822Z,35.60
2018-08-12T10:52:44.844Z,35.60
2018-08-12T10:58:06.100Z,35.80
2018-08-12T11:00:35.347Z,35.70
2018-08-12T11:03:03.509Z,35.30
2018-08-12T11:05:31.673Z,35.20
2018-08-12T11:07:59.896Z,35.20
2018-08-12T11:10:28.660Z,35.20
2018-08-12T11:12:56.861Z,35.10
2018-08-12T11:15:25.036Z,34.90
2018-08-12T11:17:53.156Z,34.60
2018-08-12T11:20:21.624Z,34.50
2018-08-12T11:22:50.612Z,34.40
2018-08-12T11:25:18.855Z,34.30
2018-08-12T11:27:47.017Z,34.30
2018-08-12T11:30:16.613Z,34.30
2018-08-12T11:32:44.784Z,34.10
2018-08-12T11:35:14.741Z,33.90
2018-08-12T11:37:43.345Z,33.70
2018-08-12T11:40:12.575Z,33.50
2018-08-12T11:42:40.855Z,33.30
2018-08-12T11:45:11.841Z,33.00
2018-08-12T11:47:40.413Z,32.50
2018-08-12T11:50:09.730Z,32.30
2018-08-12T11:52:38.074Z,32.00
2018-08-12T11:55:07.499Z,31.90
2018-08-12T11:57:35.950Z,31.80
2018-08-12T12:00:06.781Z,31.30
2018-08-12T12:02:34.941Z,30.70
2018-08-12T12:05:03.637Z,30.60
2018-08-12T12:07:31.785Z,30.20
2018-08-12T12:10:00.013Z,30.00
2018-08-12T12:12:28.204Z,29.60
2018-08-12T12:14:56.367Z,30.00
2018-08-12T12:17:24.500Z,29.70
2018-08-12T12:19:52.766Z,29.80
2018-08-12T12:22:21.270Z,29.60
2018-08-12T12:24:49.454Z,29.60
2018-08-12T12:27:17.622Z,29.70
2018-08-12T12:29:46.020Z,29.80
2018-08-12T12:32:14.148Z,29.90
2018-08-12T12:34:42.253Z,30.00
2018-08-12T12:37:10.436Z,30.00
2018-08-12T12:39:38.572Z,30.20
2018-08-12T12:42:06.720Z,30.40
2018-08-12T12:44:34.972Z,30.40
2018-08-12T12:47:03.104Z,30.50
2018-08-12T12:49:31.285Z,30.60
2018-08-12T12:51:59.442Z,30.50
2018-08-12T12:54:28.004Z,30.40
2018-08-12T12:56:56.260Z,30.30
2018-08-12T12:59:24.427Z,30.10
2018-08-12T13:01:52.608Z,29.90
2018-08-12T13:04:20.893Z,30.00
2018-08-12T13:06:49.122Z,30.10
2018-08-12T13:09:17.568Z,30.30
2018-08-12T13:11:45.730Z,30.30
2018-08-12T13:14:13.852Z,30.40
2018-08-12T13:16:42.066Z,30.40
2018-08-12T13:19:10.308Z,30.50
2018-08-12T13:21:38.488Z,30.10
2018-08-12T13:24:06.657Z,30.00
2018-08-12T13:26:34.920Z,30.00
2018-08-12T13:29:03.114Z,30.20
2018-08-12T13:31:31.629Z,30.30
2018-08-12T13:33:59.908Z,30.60
2018-08-12T13:36:28.633Z,30.70
2018-08-12T13:38:56.804Z,30.40
2018-08-12T13:41:25.081Z,30.20
2018-08-12T13:43:53.263Z,30.00
2018-08-12T13:46:21.552Z,29.80
2018-08-12T13:48:49.786Z,29.50
2018-08-12T13:51:18.005Z,29.60
2018-08-12T13:53:46.239Z,29.80
2018-08-12T13:56:14.412Z,30.00
2018-08-12T13:58:42.594Z,29.90
2018-08-12T14:01:10.800Z,29.70
2018-08-12T14:03:38.960Z,29.70
2018-08-12T14:06:07.164Z,29.80
2018-08-12T14:08:35.596Z,29.80
2018-08-12T14:11:10.147Z,29.90
2018-08-12T14:13:38.383Z,30.00
2018-08-12T14:16:06.512Z,29.90
2018-08-12T14:18:34.688Z,29.80
2018-08-12T14:21:02.969Z,29.60
2018-08-12T14:23:31.208Z,29.50
2018-08-12T14:25:59.676Z,29.50
2018-08-12T14:28:27.809Z,29.40
2018-08-12T14:30:56.037Z,29.60
2018-08-12T14:33:24.200Z,29.70
2018-08-12T14:35:52.362Z,29.90
2018-08-12T14:38:20.614Z,29.90
2018-08-12T14:40:48.778Z,29.90
2018-08-12T14:43:17.020Z,30.00
2018-08-12T14:45:45.212Z,30.00
2018-08-12T14:48:13.380Z,30.00
2018-08-12T14:50:41.810Z,30.00
2018-08-12T14:53:09.954Z,30.00
2018-08-12T14:55:38.100Z,30.50
2018-08-12T14:58:06.460Z,29.90
2018-08-12T15:00:34.606Z,29.90
2018-08-12T15:03:02.789Z,29.80
2018-08-12T15:05:30.928Z,29.90
2018-08-12T15:07:59.493Z,29.70
2018-08-12T15:10:27.712Z,29.70
2018-08-12T15:12:55.982Z,29.80
2018-08-12T15:15:24.202Z,29.90
2018-08-12T15:17:52.282Z,30.10
2018-08-12T15:20:20.464Z,30.10
2018-08-12T15:22:48.737Z,30.00
2018-08-12T15:25:18.537Z,30.00
2018-08-12T15:27:46.943Z,30.00
2018-08-12T15:30:15.178Z,30.00
2018-08-12T15:32:43.411Z,30.00
2018-08-12T15:35:11.546Z,30.10
2018-08-12T15:37:40.742Z,30.00
2018-08-12T15:40:13.186Z,30.00
2018-08-12T15:42:41.710Z,29.90
2018-08-12T15:45:12.316Z,29.90
2018-08-12T15:47:41.414Z,29.90
2018-08-12T15:50:10.432Z,29.90
2018-08-12T15:52:39.040Z,29.80
2018-08-12T15:55:07.545Z,29.80
2018-08-12T15:57:35.756Z,29.80
2018-08-12T16:00:07.189Z,29.70
2018-08-12T16:02:35.636Z,29.60
2018-08-12T16:05:03.872Z,29.60
2018-08-12T16:07:32.052Z,29.60
2018-08-12T16:10:00.508Z,29.80
2018-08-12T16:12:28.682Z,29.70
2018-08-12T16:14:56.825Z,29.60
2018-08-12T16:17:24.984Z,29.60
2018-08-12T16:19:53.148Z,29.80
2018-08-12T16:22:21.670Z,30.00
2018-08-12T16:24:49.851Z,30.00
2018-08-12T16:27:18.043Z,30.20
2018-08-12T16:29:46.228Z,30.30
2018-08-12T16:32:14.372Z,30.30
2018-08-12T16:34:42.804Z,30.40
2018-08-12T16:37:10.929Z,30.40
2018-08-12T16:39:39.262Z,30.50
2018-08-12T16:42:07.572Z,30.60
2018-08-12T16:44:35.787Z,30.50
2018-08-12T16:47:04.189Z,30.50
2018-08-12T16:49:33.749Z,30.60
2018-08-12T16:52:02.037Z,30.70
2018-08-12T16:54:30.178Z,30.60
2018-08-12T16:57:03.984Z,30.70
2018-08-12T16:59:32.126Z,30.80
2018-08-12T17:02:00.273Z,30.90
2018-08-12T17:04:28.639Z,31.00
2018-08-12T17:06:56.647Z,31.20
2018-08-12T17:09:24.748Z,31.20
2018-08-12T17:11:52.923Z,31.20
2018-08-12T17:14:21.099Z,31.30
2018-08-12T17:16:49.325Z,31.30
2018-08-12T17:19:17.483Z,31.50
2018-08-12T17:21:45.615Z,31.80
2018-08-12T17:24:13.800Z,31.80
2018-08-12T17:26:41.961Z,31.70
2018-08-12T17:29:10.150Z,31.80
2018-08-12T17:31:38.268Z,31.80
2018-08-12T17:34:06.546Z,32.00
2018-08-12T17:36:34.760Z,32.10
2018-08-12T17:39:02.936Z,32.30
2018-08-12T17:41:31.103Z,32.50
2018-08-12T17:43:59.296Z,32.70
2018-08-12T17:46:27.484Z,32.70
2018-08-12T17:48:55.681Z,32.80
2018-08-12T17:51:24.952Z,32.90
2018-08-12T17:53:53.085Z,32.90
2018-08-12T17:56:21.291Z,33.10
2018-08-12T17:58:49.399Z,33.20
2018-08-12T18:01:17.532Z,33.40
2018-08-12T18:03:45.728Z,33.60
2018-08-12T18:06:13.836Z,33.80
2018-08-12T18:08:42.232Z,34.00
2018-08-12T18:11:10.342Z,34.20
2018-08-12T18:13:38.509Z,34.50
2018-08-12T18:16:06.637Z,34.70
2018-08-12T18:18:34.750Z,35.10
2018-08-12T18:21:02.880Z,35.40
2018-08-12T18:23:31.100Z,35.70
2018-08-12T18:25:59.254Z,36.00
2018-08-12T18:28:27.460Z,36.30
2018-08-12T18:30:55.644Z,36.50
2018-08-12T18:33:23.795Z,36.70
2018-08-12T18:35:51.957Z,36.90
2018-08-12T18:38:20.093Z,37.00
2018-08-12T18:40:48.310Z,37.20
2018-08-12T18:43:16.576Z,37.40
2018-08-12T18:45:44.673Z,37.50
2018-08-12T18:48:12.837Z,37.60
2018-08-12T18:50:41.000Z,37.80
2018-08-12T18:53:09.201Z,37.90
2018-08-12T18:55:37.349Z,38.10
2018-08-12T18:58:05.628Z,38.40
2018-08-12T19:00:33.800Z,38.50
2018-08-12T19:03:02.021Z,38.70
2018-08-12T19:05:30.189Z,38.90
2018-08-12T19:07:58.335Z,39.00
2018-08-12T19:10:26.445Z,39.10
2018-08-12T19:12:54.572Z,39.30
2018-08-12T19:15:22.744Z,39.50
2018-08-12T19:17:50.887Z,39.60
2018-08-12T19:20:18.988Z,39.70
2018-08-12T19:25:21.692Z,40.10
2018-08-12T19:27:49.888Z,40.40
2018-08-12T19:30:18.021Z,40.60
2018-08-12T19:32:46.217Z,40.90
2018-08-12T19:35:14.388Z,41.20
2018-08-12T19:37:42.604Z,41.60
2018-08-12T19:40:10.728Z,41.90
2018-08-12T19:42:39.017Z,42.10
2018-08-12T19:45:08.099Z,42.30
2018-08-12T19:47:36.381Z,42.50
2018-08-12T19:50:05.452Z,42.80
2018-08-12T19:52:33.565Z,43.00
2018-08-12T19:55:01.680Z,43.10
2018-08-12T19:57:30.054Z,43.30
2018-08-12T19:59:58.331Z,43.40
2018-08-12T20:02:26.410Z,43.60
2018-08-12T20:04:54.648Z,43.50
2018-08-12T20:07:22.807Z,43.50
2018-08-12T20:09:50.909Z,43.70
2018-08-12T20:12:19.129Z,43.80
2018-08-12T20:14:47.200Z,44.50
2018-08-12T20:17:15.395Z,44.10
2018-08-12T20:19:43.505Z,44.30
2018-08-12T20:22:12.188Z,44.50
2018-08-12T20:24:40.619Z,44.50
2018-08-12T20:27:09.064Z,44.70
2018-08-12T20:29:37.185Z,44.90
2018-08-12T20:32:05.302Z,45.00
2018-08-12T20:34:33.427Z,45.10
2018-08-12T20:37:01.553Z,45.20
2018-08-12T20:39:29.707Z,45.40
2018-08-12T20:41:57.836Z,45.40
2018-08-12T20:44:26.079Z,45.40
2018-08-12T20:46:54.289Z,45.40
2018-08-12T20:49:22.590Z,45.40
2018-08-12T20:51:50.805Z,45.50
2018-08-12T20:54:19.060Z,45.60
2018-08-12T20:56:47.241Z,45.80
2018-08-12T20:59:15.351Z,45.10
2018-08-12T21:01:43.542Z,45.80
2018-08-12T21:04:11.736Z,45.90
2018-08-12T21:06:39.920Z,46.20
2018-08-12T21:09:09.176Z,46.40
2018-08-12T21:11:37.325Z,46.70
2018-08-12T21:14:05.413Z,46.40
2018-08-12T21:16:33.678Z,47.70
2018-08-12T21:19:01.761Z,47.20
2018-08-12T21:21:29.877Z,47.30
2018-08-12T21:23:58.077Z,47.50
2018-08-12T21:26:26.188Z,47.70
2018-08-12T21:28:54.686Z,47.90
2018-08-12T21:31:22.853Z,48.00
2018-08-12T21:33:51.018Z,48.20
2018-08-12T21:36:20.300Z,48.20
2018-08-12T21:38:48.413Z,47.80
2018-08-12T21:41:16.581Z,48.50
2018-08-12T21:43:44.721Z,48.20
2018-08-12T21:46:12.923Z,48.90
2018-08-12T21:48:41.105Z,49.00
2018-08-12T21:51:09.296Z,49.10
2018-08-12T21:53:37.413Z,48.50
2018-08-12T21:56:05.575Z,49.20
2018-08-12T21:58:33.799Z,49.20
2018-08-12T22:01:02.004Z,49.20
2018-08-12T22:03:30.148Z,48.60
2018-08-12T22:05:58.308Z,49.20
2018-08-12T22:08:26.374Z,48.60
2018-08-12T22:10:54.493Z,49.30
2018-08-12T22:13:22.639Z,49.30
2018-08-12T22:15:50.862Z,49.50
2018-08-12T22:18:19.152Z,49.80
2018-08-12T22:20:47.378Z,49.90
2018-08-12T22:23:15.590Z,50.00
2018-08-12T22:25:44.760Z,50.20
2018-08-12T22:28:12.891Z,50.20
2018-08-12T22:30:41.100Z,50.50
2018-08-12T22:33:09.219Z,51.40
2018-08-12T22:35:37.434Z,51.80
2018-08-12T22:38:05.992Z,52.20
2018-08-12T22:40:34.189Z,52.30
2018-08-12T22:43:02.368Z,52.50
2018-08-12T22:45:31.177Z,52.50
2018-08-12T22:47:59.271Z,52.50
2018-08-12T22:50:27.398Z,52.70
2018-08-12T22:52:58.559Z,52.70
2018-08-12T22:55:26.746Z,52.80
2018-08-12T22:57:54.888Z,52.20
2018-08-12T23:00:23.003Z,52.90
2018-08-12T23:02:51.211Z,52.90
2018-08-12T23:05:19.417Z,52.90
2018-08-12T23:07:47.656Z,52.20
2018-08-12T23:10:15.717Z,52.90
2018-08-12T23:12:43.841Z,52.30
2018-08-12T23:15:23.333Z,52.30
2018-08-12T23:17:51.728Z,52.50
2018-08-12T23:20:19.933Z,53.10
2018-08-12T23:22:48.061Z,53.20
2018-08-12T23:25:16.425Z,52.70
2018-08-12T23:27:44.557Z,53.40
2018-08-12T23:30:12.729Z,53.40
2018-08-12T23:32:41.134Z,53.50
2018-08-12T23:35:09.402Z,53.60
2018-08-12T23:37:37.634Z,53.60
2018-08-12T23:40:06.040Z,53.60
2018-08-12T23:42:35.354Z,53.60
2018-08-12T23:45:03.606Z,53.70
2018-08-12T23:47:31.806Z,53.70
2018-08-12T23:49:59.957Z,53.10
2018-08-12T23:52:28.156Z,54.40
2018-08-12T23:54:56.275Z,53.90
2018-08-12T23:57:24.482Z,53.90
2018-08-12T23:59:52.689Z,53.90
